createdAt,value
2022-09-14T03:03:00.162Z,7.07
2022-09-14T03:05:27.981Z,6.85
2022-09-14T03:07:55.919Z,6.82
2022-09-14T03:10:23.726Z,7.07
2022-09-14T03:12:51.654Z,6.90
2022-09-14T03:15:19.506Z,7.18
2022-09-14T03:17:48.018Z,7.13
2022-09-14T03:20:19.372Z,7.30
2022-09-14T03:22:47.507Z,7.80
2022-09-14T03:25:15.684Z,7.65
2022-09-14T03:27:43.708Z,6.97
2022-09-14T03:30:12.859Z,8.00
2022-09-14T03:32:40.679Z,7.80
2022-09-14T03:35:09.606Z,8.27
2022-09-14T03:37:40.466Z,8.05
2022-09-14T03:40:10.513Z,7.93
2022-09-14T03:42:42.337Z,7.72
2022-09-14T03:45:11.260Z,8.05
2022-09-14T03:47:39.151Z,7.55
2022-09-14T03:50:08.413Z,8.15
2022-09-14T03:52:37.088Z,7.93
2022-09-14T03:55:08.310Z,7.72
2022-09-14T03:57:37.106Z,7.93
2022-09-14T04:00:08.192Z,7.93
2022-09-14T04:02:39.387Z,7.63
2022-09-14T04:05:07.607Z,7.18
2022-09-14T04:07:35.446Z,7.03
2022-09-14T04:10:04.143Z,7.10
2022-09-14T04:12:36.871Z,7.40
2022-09-14T04:15:05.338Z,7.18
2022-09-14T04:17:33.411Z,7.05
2022-09-14T04:20:01.235Z,7.05
2022-09-14T04:22:29.077Z,6.63
2022-09-14T04:24:56.882Z,6.65
2022-09-14T04:27:24.780Z,6.68
2022-09-14T04:29:54.048Z,6.28
2022-09-14T04:32:21.882Z,6.38
2022-09-14T04:34:49.979Z,7.78
2022-09-14T04:37:17.925Z,7.28
2022-09-14T04:39:45.804Z,7.35
2022-09-14T04:42:13.628Z,7.15
2022-09-14T04:44:41.430Z,6.75
2022-09-14T04:47:10.616Z,7.03
2022-09-14T04:49:38.421Z,6.93
2022-09-14T04:52:06.277Z,6.57
2022-09-14T04:54:34.088Z,6.63
2022-09-14T04:57:02.008Z,6.35
2022-09-14T04:59:29.839Z,7.30
2022-09-14T05:01:57.690Z,7.07
2022-09-14T05:04:27.030Z,7.55
2022-09-14T05:06:56.107Z,7.03
2022-09-14T05:09:24.102Z,7.68
2022-09-14T05:11:52.778Z,7.22
2022-09-14T05:14:20.753Z,7.20
2022-09-14T05:16:48.564Z,7.35
2022-09-14T05:19:18.505Z,7.28
2022-09-14T05:21:48.017Z,7.18
2022-09-14T05:24:18.956Z,6.97
2022-09-14T05:26:47.500Z,7.57
2022-09-14T05:29:17.050Z,7.80
2022-09-14T05:31:45.403Z,7.38
2022-09-14T05:34:13.803Z,7.78
2022-09-14T05:36:42.283Z,8.10
2022-09-14T05:39:12.118Z,8.32
2022-09-14T05:41:40.098Z,7.93
2022-09-14T05:44:08.182Z,8.07
2022-09-14T05:46:36.158Z,8.25
2022-09-14T05:49:04.190Z,8.02
2022-09-14T05:51:32.042Z,8.27
2022-09-14T05:54:00.652Z,9.07
2022-09-14T05:56:31.594Z,8.48
2022-09-14T05:59:00.213Z,8.88
2022-09-14T06:01:30.042Z,9.05
2022-09-14T06:04:00.227Z,10.00
2022-09-14T06:06:28.220Z,9.60
2022-09-14T06:08:56.323Z,10.07
2022-09-14T06:11:25.871Z,9.32
2022-09-14T06:13:55.735Z,9.80
2022-09-14T06:16:24.971Z,10.10
2022-09-14T06:18:52.844Z,9.50
2022-09-14T06:21:22.223Z,9.80
2022-09-14T06:23:51.026Z,9.15
2022-09-14T06:26:19.772Z,9.07
2022-09-14T06:28:47.693Z,10.15
2022-09-14T06:31:17.767Z,9.60
2022-09-14T06:33:45.835Z,9.65
2022-09-14T06:36:15.840Z,9.85
2022-09-14T06:38:44.350Z,9.73
2022-09-14T06:41:14.238Z,9.07
2022-09-14T06:43:43.339Z,9.60
2022-09-14T06:46:14.595Z,9.95
2022-09-14T06:48:45.434Z,9.50
2022-09-14T06:51:15.841Z,9.95
2022-09-14T06:53:44.236Z,10.07
2022-09-14T06:56:12.235Z,9.90
2022-09-14T06:58:40.562Z,11.13
2022-09-14T07:01:11.894Z,10.90
2022-09-14T07:03:40.746Z,10.20
2022-09-14T07:06:12.833Z,10.10
2022-09-14T07:08:41.366Z,9.77
2022-09-14T07:11:11.300Z,9.50
2022-09-14T07:13:39.609Z,8.75
2022-09-14T07:16:08.935Z,9.25
2022-09-14T07:18:37.352Z,9.07
2022-09-14T07:21:06.692Z,9.38
2022-09-14T07:23:38.521Z,9.02
2022-09-14T07:26:07.976Z,9.45
2022-09-14T07:28:37.012Z,9.40
2022-09-14T07:31:05.747Z,10.23
2022-09-14T07:33:33.630Z,11.13
2022-09-14T07:36:08.261Z,10.07
2022-09-14T07:38:53.549Z,10.50
2022-09-14T07:41:22.281Z,10.32
2022-09-14T07:43:51.007Z,8.77
2022-09-14T07:46:19.132Z,7.93
2022-09-14T07:48:47.192Z,7.78
2022-09-14T07:51:15.048Z,8.65
2022-09-14T07:53:45.482Z,8.48
2022-09-14T07:56:14.799Z,7.28
2022-09-14T07:58:42.625Z,7.93
2022-09-14T08:01:12.848Z,7.63
2022-09-14T08:03:42.033Z,7.07
2022-09-14T08:06:13.018Z,5.97
2022-09-14T08:08:43.042Z,6.45
2022-09-14T08:11:15.665Z,6.13
2022-09-14T08:13:45.391Z,5.68
2022-09-14T08:16:14.041Z,6.25
2022-09-14T08:18:42.428Z,5.40
2022-09-14T08:21:12.098Z,5.32
2022-09-14T08:23:41.611Z,5.28
2022-09-14T08:26:11.107Z,5.78
2022-09-14T08:28:40.912Z,5.35
2022-09-14T08:31:10.455Z,5.95
2022-09-14T08:33:40.547Z,5.45
2022-09-14T08:36:10.160Z,6.00
2022-09-14T08:38:38.523Z,6.28
2022-09-14T08:41:17.514Z,6.35
2022-09-14T08:43:47.067Z,6.28
2022-09-14T08:46:25.081Z,6.47
2022-09-14T08:48:54.608Z,7.70
2022-09-14T08:51:22.971Z,7.60
2022-09-14T08:53:53.168Z,8.27
2022-09-14T08:56:37.430Z,8.20
2022-09-14T08:59:23.024Z,8.07
2022-09-14T09:02:01.811Z,7.50
2022-09-14T09:04:37.633Z,6.47
2022-09-14T09:07:12.967Z,7.05
2022-09-14T09:09:44.999Z,7.00
2022-09-14T09:12:20.135Z,7.28
2022-09-14T09:14:53.077Z,6.43
2022-09-14T09:17:26.028Z,5.85
2022-09-14T09:20:01.898Z,6.05
2022-09-14T09:22:36.861Z,5.63
2022-09-14T09:25:05.975Z,5.00
2022-09-14T09:27:35.081Z,5.22
2022-09-14T09:30:02.962Z,5.68
2022-09-14T09:32:31.372Z,5.22
2022-09-14T09:35:34.842Z,5.50
2022-09-14T09:38:15.673Z,5.18
2022-09-14T09:40:47.195Z,4.10
2022-09-14T09:43:33.580Z,3.75
2022-09-14T09:46:08.764Z,3.72
2022-09-14T09:48:42.347Z,3.72
2022-09-14T09:51:13.589Z,3.70
2022-09-14T09:53:49.195Z,3.20
2022-09-14T09:56:23.767Z,3.60
2022-09-14T09:58:53.223Z,3.60
2022-09-14T10:01:24.086Z,3.90
2022-09-14T10:04:03.534Z,3.92
2022-09-14T10:06:31.845Z,3.63
2022-09-14T10:08:59.915Z,3.75
2022-09-14T10:11:34.338Z,3.95
2022-09-14T10:14:04.931Z,4.13
2022-09-14T10:16:38.086Z,3.80
2022-09-14T10:19:14.948Z,4.07
2022-09-14T10:22:18.226Z,7.38
2022-09-14T10:24:56.709Z,4.68
2022-09-14T10:27:39.490Z,4.53
2022-09-14T10:30:14.844Z,3.75
2022-09-14T10:32:46.155Z,3.90
2022-09-14T10:35:15.606Z,3.60
2022-09-14T10:37:53.722Z,3.90
2022-09-14T10:40:30.171Z,4.20
2022-09-14T10:43:10.051Z,4.15
2022-09-14T10:45:42.393Z,4.45
2022-09-14T10:48:36.570Z,4.15
2022-09-14T10:51:16.903Z,3.80
2022-09-14T10:53:54.842Z,4.55
2022-09-14T10:56:28.286Z,4.40
2022-09-14T10:59:21.365Z,4.15
2022-09-14T11:02:13.957Z,4.18
2022-09-14T11:04:58.806Z,5.40
2022-09-14T11:07:36.901Z,4.43
2022-09-14T11:10:17.498Z,5.00
2022-09-14T11:12:54.572Z,4.70
2022-09-14T11:15:27.751Z,4.68
2022-09-14T11:18:14.023Z,4.72
2022-09-14T11:20:56.605Z,4.88
2022-09-14T11:23:38.049Z,4.93
2022-09-14T11:26:15.551Z,5.03
2022-09-14T11:28:46.007Z,4.43
2022-09-14T11:31:19.892Z,4.75
2022-09-14T11:33:55.089Z,5.10
2022-09-14T11:36:25.904Z,4.63
2022-09-14T11:38:57.925Z,5.38
2022-09-14T11:41:31.983Z,5.10
2022-09-14T11:44:05.193Z,5.10
2022-09-14T11:46:35.800Z,5.20
2022-09-14T11:49:16.185Z,5.18
2022-09-14T11:51:49.863Z,5.00
2022-09-14T11:54:19.808Z,5.78
2022-09-14T11:56:49.890Z,6.45
2022-09-14T11:59:50.573Z,5.70
2022-09-14T12:03:12.805Z,5.03
2022-09-14T12:05:44.448Z,5.60
2022-09-14T12:08:42.385Z,5.38
2022-09-14T12:11:28.689Z,5.47
2022-09-14T12:14:26.442Z,5.60
2022-09-14T12:17:22.604Z,5.63
2022-09-14T12:19:57.480Z,5.70
2022-09-14T12:22:33.316Z,5.38
2022-09-14T12:25:16.200Z,6.00
2022-09-14T12:27:44.993Z,6.63
2022-09-14T12:30:40.525Z,6.40
2022-09-14T12:33:43.803Z,6.38
2022-09-14T12:36:12.761Z,6.70
2022-09-14T12:38:43.928Z,7.28
2022-09-14T12:41:48.058Z,7.50
2022-09-14T12:44:36.837Z,7.95
2022-09-14T12:47:59.042Z,7.18
2022-09-14T12:50:31.636Z,7.65
2022-09-14T12:53:19.818Z,6.80
2022-09-14T12:55:57.614Z,7.18
2022-09-14T12:58:55.999Z,7.03
2022-09-14T13:01:37.175Z,7.03
2022-09-14T13:04:06.003Z,6.30
2022-09-14T13:06:41.550Z,6.85
2022-09-14T13:09:17.351Z,7.22
2022-09-14T13:11:49.842Z,7.25
2022-09-14T13:14:19.691Z,8.25
2022-09-14T13:16:51.412Z,7.40
2022-09-14T13:19:26.915Z,7.50
2022-09-14T13:21:56.592Z,8.43
2022-09-14T13:24:30.976Z,8.10
2022-09-14T13:27:02.259Z,7.28
2022-09-14T13:29:31.067Z,8.05
2022-09-14T13:32:03.689Z,7.78
2022-09-14T13:34:35.594Z,8.90
2022-09-14T13:37:05.180Z,7.65
2022-09-14T13:39:35.810Z,8.88
2022-09-14T13:42:06.404Z,8.15
2022-09-14T13:44:36.220Z,9.00
2022-09-14T13:47:06.686Z,9.65
2022-09-14T13:49:36.492Z,8.57
2022-09-14T13:52:43.547Z,8.30
2022-09-14T13:55:22.629Z,8.77
2022-09-14T13:58:20.927Z,8.90
2022-09-14T14:00:58.067Z,8.73
2022-09-14T14:03:30.939Z,9.75
2022-09-14T14:05:59.501Z,10.02
2022-09-14T14:08:32.466Z,10.90
2022-09-14T14:11:01.956Z,9.93
2022-09-14T14:13:33.003Z,10.38
2022-09-14T14:16:18.551Z,9.07
2022-09-14T14:18:53.273Z,9.27
2022-09-14T14:21:30.627Z,8.45
2022-09-14T14:24:49.745Z,8.57
2022-09-14T14:27:32.085Z,8.48
2022-09-14T14:30:02.797Z,6.57
2022-09-14T14:32:31.699Z,6.63
2022-09-14T14:35:06.145Z,6.53
2022-09-14T14:37:33.995Z,6.13
2022-09-14T14:40:02.113Z,6.15
2022-09-14T14:42:30.361Z,5.97
2022-09-14T14:44:58.214Z,5.85
2022-09-14T14:47:27.899Z,6.40
2022-09-14T14:49:55.812Z,6.65
2022-09-14T14:52:23.628Z,6.20
2022-09-14T14:54:51.440Z,6.47
2022-09-14T14:57:19.267Z,5.65
2022-09-14T14:59:51.749Z,5.32
2022-09-14T15:02:19.588Z,5.22
2022-09-14T15:04:49.057Z,5.00
2022-09-14T15:07:17.639Z,5.25
2022-09-14T15:09:45.732Z,4.47
2022-09-14T15:12:13.860Z,4.00
2022-09-14T15:14:41.835Z,3.72
2022-09-14T15:17:09.706Z,4.00
2022-09-14T15:19:37.601Z,3.80
2022-09-14T15:22:06.947Z,3.95
2022-09-14T15:24:34.800Z,4.10
2022-09-14T15:27:03.427Z,4.13
2022-09-14T15:29:31.342Z,4.00
2022-09-14T15:31:59.301Z,3.92
2022-09-14T15:34:27.300Z,3.97
2022-09-14T15:36:57.408Z,4.70
2022-09-14T15:39:28.650Z,4.15
2022-09-14T15:41:57.519Z,4.63
2022-09-14T15:44:25.477Z,4.10
2022-09-14T15:46:56.302Z,4.07
2022-09-14T15:49:25.765Z,4.35
2022-09-14T15:51:55.307Z,25.70
2022-09-14T15:54:25.175Z,10.98
2022-09-14T15:56:56.685Z,10.77
2022-09-14T15:59:24.587Z,5.85
2022-09-14T16:01:52.788Z,5.13
2022-09-14T16:04:21.866Z,5.22
2022-09-14T16:06:50.138Z,5.32
2022-09-14T16:09:21.455Z,5.50
2022-09-14T16:11:50.088Z,5.15
2022-09-14T16:14:19.343Z,6.63
2022-09-14T16:16:47.360Z,6.22
2022-09-14T16:19:16.168Z,6.75
2022-09-14T16:21:44.440Z,6.10
2022-09-14T16:24:15.019Z,6.18
2022-09-14T16:26:43.679Z,6.03
2022-09-14T16:29:13.619Z,6.20
2022-09-14T16:31:44.553Z,6.28
2022-09-14T16:34:14.818Z,6.75
2022-09-14T16:36:43.830Z,7.53
2022-09-14T16:39:13.099Z,7.97
2022-09-14T16:41:42.178Z,7.53
2022-09-14T16:44:13.344Z,7.35
2022-09-14T16:46:43.407Z,4.95
2022-09-14T16:49:11.689Z,4.50
2022-09-14T16:51:39.986Z,3.50
2022-09-14T16:54:08.917Z,3.25
2022-09-14T16:56:38.397Z,2.90
2022-09-14T16:59:07.399Z,2.65
2022-09-14T17:01:37.653Z,2.80
2022-09-14T17:04:09.454Z,3.22
2022-09-14T17:06:39.368Z,3.47
2022-09-14T17:09:08.919Z,3.50
2022-09-14T17:11:38.448Z,3.30
2022-09-14T17:14:07.234Z,3.13
2022-09-14T17:16:35.331Z,2.80
2022-09-14T17:19:06.330Z,2.65
2022-09-14T17:21:36.284Z,3.05
2022-09-14T17:24:05.543Z,2.78
2022-09-14T17:26:34.496Z,2.90
2022-09-14T17:29:03.250Z,3.25
2022-09-14T17:31:33.557Z,2.67
2022-09-14T17:34:03.031Z,2.72
2022-09-14T17:36:32.545Z,2.25
2022-09-14T17:39:02.870Z,2.00
2022-09-14T17:41:33.133Z,1.70
2022-09-14T17:44:02.839Z,2.00
2022-09-14T17:46:31.602Z,1.63
2022-09-14T17:49:01.117Z,1.60
2022-09-14T17:51:30.344Z,1.48
2022-09-14T17:54:01.839Z,1.50
2022-09-14T17:56:30.937Z,1.90
2022-09-14T17:59:04.598Z,1.50
2022-09-14T18:01:33.340Z,1.70
2022-09-14T18:04:03.122Z,1.40
2022-09-14T18:06:32.796Z,1.50
2022-09-14T18:09:04.651Z,1.60
2022-09-14T18:11:33.117Z,1.70
2022-09-14T18:14:01.457Z,1.75
2022-09-14T18:16:29.475Z,1.50
2022-09-14T18:18:58.097Z,1.83
2022-09-14T18:21:26.419Z,1.70
2022-09-14T18:23:55.867Z,1.50
2022-09-14T18:26:25.953Z,1.90
2022-09-14T18:28:56.081Z,1.90
2022-09-14T18:31:24.477Z,1.70
2022-09-14T18:33:54.009Z,1.80
2022-09-14T18:36:23.181Z,1.73
2022-09-14T18:38:52.926Z,1.80
2022-09-14T18:41:21.988Z,2.28
2022-09-14T18:43:52.966Z,2.10
2022-09-14T18:46:25.777Z,2.03
2022-09-14T18:48:57.278Z,2.38
2022-09-14T18:51:25.713Z,2.22
2022-09-14T18:53:58.007Z,2.10
2022-09-14T18:56:26.656Z,1.90
2022-09-14T18:58:56.093Z,2.15
2022-09-14T19:01:24.134Z,2.42
2022-09-14T19:03:53.745Z,2.40
2022-09-14T19:06:21.879Z,3.00
2022-09-14T19:08:50.932Z,2.45
2022-09-14T19:11:21.083Z,2.50
2022-09-14T19:13:50.811Z,2.30
2022-09-14T19:16:20.428Z,2.60
2022-09-14T19:18:49.899Z,2.80
2022-09-14T19:21:23.710Z,2.60
2022-09-14T19:24:00.141Z,2.78
2022-09-14T19:26:29.742Z,3.75
2022-09-14T19:28:57.635Z,3.38
2022-09-14T19:31:29.646Z,2.95
2022-09-14T19:33:57.857Z,2.72
2022-09-14T19:36:27.261Z,2.72
2022-09-14T19:38:57.271Z,2.90
2022-09-14T19:41:25.409Z,2.35
2022-09-14T19:43:53.391Z,2.53
2022-09-14T19:46:23.289Z,2.40
2022-09-14T19:48:52.968Z,3.28
2022-09-14T19:51:22.746Z,3.20
2022-09-14T19:53:52.827Z,2.88
2022-09-14T19:56:22.765Z,2.92
2022-09-14T19:58:53.591Z,2.55
2022-09-14T20:01:23.630Z,3.30
2022-09-14T20:03:53.107Z,2.65
2022-09-14T20:06:25.478Z,2.63
2022-09-14T20:08:56.540Z,2.55
2022-09-14T20:11:26.967Z,2.50
2022-09-14T20:13:55.699Z,2.60
2022-09-14T20:16:26.260Z,2.63
2022-09-14T20:18:56.745Z,2.75
2022-09-14T20:21:27.037Z,2.63
2022-09-14T20:24:15.137Z,2.70
2022-09-14T20:26:44.489Z,2.67
2022-09-14T20:29:12.549Z,2.80
2022-09-14T20:31:40.812Z,3.10
2022-09-14T20:34:10.088Z,2.90
2022-09-14T20:36:38.714Z,2.80
2022-09-14T20:39:06.983Z,2.45
2022-09-14T20:41:36.311Z,2.70
2022-09-14T20:44:05.004Z,2.35
2022-09-14T20:46:35.897Z,2.78
2022-09-14T20:49:05.527Z,2.58
2022-09-14T20:51:35.939Z,2.50
2022-09-14T20:54:04.912Z,2.70
2022-09-14T20:56:34.856Z,2.72
2022-09-14T20:59:05.355Z,3.58
2022-09-14T21:01:36.443Z,2.95
2022-09-14T21:04:06.591Z,2.60
2022-09-14T21:06:37.474Z,2.35
2022-09-14T21:09:05.528Z,2.25
2022-09-14T21:11:33.853Z,2.33
2022-09-14T21:14:01.914Z,2.37
2022-09-14T21:16:31.659Z,2.70
2022-09-14T21:19:00.849Z,2.60
2022-09-14T21:21:29.395Z,2.70
2022-09-14T21:24:00.256Z,2.70
2022-09-14T21:26:29.990Z,2.80
2022-09-14T21:28:59.423Z,2.50
